sensor_id;sensor_type;location;lat;lon;timestamp;P1;durP1;ratioP1;P2;durP2;ratioP2
33810;SDS011;20119;48.334;16.206;2023-03-31T00:00:30;2.63;;;2.30;;
33810;SDS011;20119;48.334;16.206;2023-03-31T00:02:57;3.55;;;2.38;;
33810;SDS011;20119;48.334;16.206;2023-03-31T00:05:24;4.03;;;2.30;;
33810;SDS011;20119;48.334;16.206;2023-03-31T00:07:52;6.80;;;2.47;;
33810;SDS011;20119;48.334;16.206;2023-03-31T00:10:25;3.97;;;2.35;;
33810;SDS011;20119;48.334;16.206;2023-03-31T00:12:53;4.65;;;2.30;;
33810;SDS011;20119;48.334;16.206;2023-03-31T00:15:21;3.83;;;2.40;;
33810;SDS011;20119;48.334;16.206;2023-03-31T00:17:48;2.92;;;2.38;;
33810;SDS011;20119;48.334;16.206;2023-03-31T00:20:17;4.57;;;2.58;;
33810;SDS011;20119;48.334;16.206;2023-03-31T00:22:44;3.58;;;2.20;;
33810;SDS011;20119;48.334;16.206;2023-03-31T00:25:13;2.97;;;2.00;;
33810;SDS011;20119;48.334;16.206;2023-03-31T00:27:42;5.07;;;2.45;;
33810;SDS011;20119;48.334;16.206;2023-03-31T00:30:11;4.00;;;2.53;;
33810;SDS011;20119;48.334;16.206;2023-03-31T00:35:08;4.88;;;2.38;;
33810;SDS011;20119;48.334;16.206;2023-03-31T00:37:35;4.65;;;2.50;;
33810;SDS011;20119;48.334;16.206;2023-03-31T00:40:03;5.13;;;2.67;;
33810;SDS011;20119;48.334;16.206;2023-03-31T00:42:38;3.78;;;2.70;;
33810;SDS011;20119;48.334;16.206;2023-03-31T00:45:24;3.83;;;3.00;;
33810;SDS011;20119;48.334;16.206;2023-03-31T00:47:54;4.18;;;2.80;;
33810;SDS011;20119;48.334;16.206;2023-03-31T00:50:29;3.58;;;3.00;;
33810;SDS011;20119;48.334;16.206;2023-03-31T00:53:01;6.72;;;2.95;;
33810;SDS011;20119;48.334;16.206;2023-03-31T00:55:32;3.72;;;3.13;;
33810;SDS011;20119;48.334;16.206;2023-03-31T00:58:03;4.65;;;3.28;;
33810;SDS011;20119;48.334;16.206;2023-03-31T01:00:34;3.33;;;2.80;;
33810;SDS011;20119;48.334;16.206;2023-03-31T01:05:35;3.80;;;3.17;;
33810;SDS011;20119;48.334;16.206;2023-03-31T01:08:08;4.93;;;3.38;;
33810;SDS011;20119;48.334;16.206;2023-03-31T01:10:38;7.05;;;3.67;;
33810;SDS011;20119;48.334;16.206;2023-03-31T01:13:08;5.43;;;3.38;;
33810;SDS011;20119;48.334;16.206;2023-03-31T01:15:41;4.30;;;3.25;;
33810;SDS011;20119;48.334;16.206;2023-03-31T01:18:09;6.18;;;3.17;;
33810;SDS011;20119;48.334;16.206;2023-03-31T01:20:43;3.97;;;3.40;;
33810;SDS011;20119;48.334;16.206;2023-03-31T01:23:40;4.00;;;3.00;;
33810;SDS011;20119;48.334;16.206;2023-03-31T01:26:41;4.10;;;3.60;;
33810;SDS011;20119;48.334;16.206;2023-03-31T01:29:27;5.70;;;3.72;;
33810;SDS011;20119;48.334;16.206;2023-03-31T01:35:27;9.10;;;3.78;;
33810;SDS011;20119;48.334;16.206;2023-03-31T01:41:40;6.78;;;4.22;;
33810;SDS011;20119;48.334;16.206;2023-03-31T01:44:16;5.88;;;3.95;;
33810;SDS011;20119;48.334;16.206;2023-03-31T01:46:55;9.40;;;4.75;;
33810;SDS011;20119;48.334;16.206;2023-03-31T01:49:31;5.45;;;4.53;;
33810;SDS011;20119;48.334;16.206;2023-03-31T01:52:07;5.63;;;4.70;;
33810;SDS011;20119;48.334;16.206;2023-03-31T01:54:45;6.55;;;4.90;;
33810;SDS011;20119;48.334;16.206;2023-03-31T01:57:17;7.20;;;5.20;;
33810;SDS011;20119;48.334;16.206;2023-03-31T01:59:51;7.03;;;4.88;;
33810;SDS011;20119;48.334;16.206;2023-03-31T02:02:24;8.63;;;5.30;;
33810;SDS011;20119;48.334;16.206;2023-03-31T02:07:45;8.45;;;5.28;;
33810;SDS011;20119;48.334;16.206;2023-03-31T02:10:18;7.70;;;4.80;;
33810;SDS011;20119;48.334;16.206;2023-03-31T02:12:50;8.85;;;5.03;;
33810;SDS011;20119;48.334;16.206;2023-03-31T02:15:21;8.35;;;5.38;;
33810;SDS011;20119;48.334;16.206;2023-03-31T02:17:53;8.23;;;5.60;;
33810;SDS011;20119;48.334;16.206;2023-03-31T02:20:24;7.35;;;5.75;;
33810;SDS011;20119;48.334;16.206;2023-03-31T02:22:56;11.93;;;6.50;;
33810;SDS011;20119;48.334;16.206;2023-03-31T02:25:27;10.70;;;6.63;;
33810;SDS011;20119;48.334;16.206;2023-03-31T02:28:02;8.13;;;6.40;;
33810;SDS011;20119;48.334;16.206;2023-03-31T02:30:35;9.25;;;6.93;;
33810;SDS011;20119;48.334;16.206;2023-03-31T02:33:11;10.32;;;7.00;;
33810;SDS011;20119;48.334;16.206;2023-03-31T02:35:39;10.07;;;7.30;;
33810;SDS011;20119;48.334;16.206;2023-03-31T02:38:06;9.07;;;7.30;;
33810;SDS011;20119;48.334;16.206;2023-03-31T02:40:36;11.75;;;7.53;;
33810;SDS011;20119;48.334;16.206;2023-03-31T02:43:05;10.45;;;7.45;;
33810;SDS011;20119;48.334;16.206;2023-03-31T02:45:41;11.25;;;7.63;;
33810;SDS011;20119;48.334;16.206;2023-03-31T02:48:27;9.70;;;7.03;;
33810;SDS011;20119;48.334;16.206;2023-03-31T02:51:12;8.85;;;7.10;;
33810;SDS011;20119;48.334;16.206;2023-03-31T02:56:57;11.25;;;7.13;;
33810;SDS011;20119;48.334;16.206;2023-03-31T02:59:40;9.13;;;7.82;;
33810;SDS011;20119;48.334;16.206;2023-03-31T03:02:17;11.65;;;7.88;;
33810;SDS011;20119;48.334;16.206;2023-03-31T03:04:57;8.90;;;7.25;;
33810;SDS011;20119;48.334;16.206;2023-03-31T03:07:41;12.02;;;7.43;;
33810;SDS011;20119;48.334;16.206;2023-03-31T03:10:16;9.27;;;6.80;;
33810;SDS011;20119;48.334;16.206;2023-03-31T03:12:53;8.50;;;7.15;;
33810;SDS011;20119;48.334;16.206;2023-03-31T03:15:27;10.55;;;7.65;;
33810;SDS011;20119;48.334;16.206;2023-03-31T03:17:57;10.88;;;7.78;;
33810;SDS011;20119;48.334;16.206;2023-03-31T03:20:25;10.85;;;7.65;;
33810;SDS011;20119;48.334;16.206;2023-03-31T03:22:52;12.63;;;9.05;;
33810;SDS011;20119;48.334;16.206;2023-03-31T03:25:19;12.63;;;8.63;;
33810;SDS011;20119;48.334;16.206;2023-03-31T03:27:48;11.40;;;8.55;;
33810;SDS011;20119;48.334;16.206;2023-03-31T03:30:17;13.38;;;8.38;;
33810;SDS011;20119;48.334;16.206;2023-03-31T03:32:48;11.32;;;8.65;;
33810;SDS011;20119;48.334;16.206;2023-03-31T03:35:20;12.63;;;8.63;;
33810;SDS011;20119;48.334;16.206;2023-03-31T03:37:48;10.80;;;8.68;;
33810;SDS011;20119;48.334;16.206;2023-03-31T03:40:15;12.45;;;9.23;;
33810;SDS011;20119;48.334;16.206;2023-03-31T03:42:43;12.80;;;9.45;;
33810;SDS011;20119;48.334;16.206;2023-03-31T03:45:10;14.70;;;10.25;;
33810;SDS011;20119;48.334;16.206;2023-03-31T03:47:38;15.88;;;10.63;;
33810;SDS011;20119;48.334;16.206;2023-03-31T03:50:08;16.73;;;10.20;;
33810;SDS011;20119;48.334;16.206;2023-03-31T03:52:38;17.35;;;12.30;;
33810;SDS011;20119;48.334;16.206;2023-03-31T03:55:06;19.85;;;13.23;;
33810;SDS011;20119;48.334;16.206;2023-03-31T03:57:36;28.88;;;17.48;;
33810;SDS011;20119;48.334;16.206;2023-03-31T04:00:04;34.33;;;19.35;;
33810;SDS011;20119;48.334;16.206;2023-03-31T04:02:34;31.92;;;18.92;;
33810;SDS011;20119;48.334;16.206;2023-03-31T04:05:01;30.75;;;19.55;;
33810;SDS011;20119;48.334;16.206;2023-03-31T04:07:31;32.08;;;18.70;;
33810;SDS011;20119;48.334;16.206;2023-03-31T04:09:59;32.55;;;19.00;;
33810;SDS011;20119;48.334;16.206;2023-03-31T04:12:27;25.33;;;16.23;;
33810;SDS011;20119;48.334;16.206;2023-03-31T04:14:55;29.83;;;17.33;;
33810;SDS011;20119;48.334;16.206;2023-03-31T04:17:22;24.90;;;17.30;;
33810;SDS011;20119;48.334;16.206;2023-03-31T04:19:56;24.45;;;15.63;;
33810;SDS011;20119;48.334;16.206;2023-03-31T04:22:26;25.05;;;15.73;;
33810;SDS011;20119;48.334;16.206;2023-03-31T04:25:01;26.88;;;15.50;;
33810;SDS011;20119;48.334;16.206;2023-03-31T04:27:29;23.30;;;15.35;;
33810;SDS011;20119;48.334;16.206;2023-03-31T04:29:59;23.60;;;16.17;;
33810;SDS011;20119;48.334;16.206;2023-03-31T04:32:26;27.63;;;17.00;;
33810;SDS011;20119;48.334;16.206;2023-03-31T04:34:57;32.83;;;20.75;;
33810;SDS011;20119;48.334;16.206;2023-03-31T04:37:28;35.92;;;22.75;;
33810;SDS011;20119;48.334;16.206;2023-03-31T04:40:00;33.83;;;21.98;;
33810;SDS011;20119;48.334;16.206;2023-03-31T04:42:33;37.63;;;22.45;;
33810;SDS011;20119;48.334;16.206;2023-03-31T04:45:01;30.73;;;20.60;;
33810;SDS011;20119;48.334;16.206;2023-03-31T04:47:30;27.17;;;16.92;;
33810;SDS011;20119;48.334;16.206;2023-03-31T04:49:57;21.67;;;15.05;;
33810;SDS011;20119;48.334;16.206;2023-03-31T04:52:25;37.75;;;23.65;;
33810;SDS011;20119;48.334;16.206;2023-03-31T04:54:53;32.25;;;20.55;;
33810;SDS011;20119;48.334;16.206;2023-03-31T04:57:23;28.05;;;19.17;;
33810;SDS011;20119;48.334;16.206;2023-03-31T04:59:50;24.95;;;16.60;;
33810;SDS011;20119;48.334;16.206;2023-03-31T05:02:19;24.42;;;15.45;;
33810;SDS011;20119;48.334;16.206;2023-03-31T05:04:48;26.65;;;17.77;;
33810;SDS011;20119;48.334;16.206;2023-03-31T05:07:16;24.58;;;16.13;;
33810;SDS011;20119;48.334;16.206;2023-03-31T05:09:44;26.88;;;17.17;;
33810;SDS011;20119;48.334;16.206;2023-03-31T05:12:14;18.15;;;11.68;;
33810;SDS011;20119;48.334;16.206;2023-03-31T05:14:43;26.17;;;16.52;;
33810;SDS011;20119;48.334;16.206;2023-03-31T05:17:10;29.83;;;18.15;;
33810;SDS011;20119;48.334;16.206;2023-03-31T05:19:42;24.70;;;15.88;;
33810;SDS011;20119;48.334;16.206;2023-03-31T05:22:09;21.02;;;13.88;;
33810;SDS011;20119;48.334;16.206;2023-03-31T05:24:37;23.58;;;15.38;;
33810;SDS011;20119;48.334;16.206;2023-03-31T05:27:05;20.58;;;13.05;;
33810;SDS011;20119;48.334;16.206;2023-03-31T05:29:35;20.38;;;12.68;;
33810;SDS011;20119;48.334;16.206;2023-03-31T05:32:04;16.65;;;11.07;;
33810;SDS011;20119;48.334;16.206;2023-03-31T05:34:32;16.48;;;11.40;;
33810;SDS011;20119;48.334;16.206;2023-03-31T05:37:00;20.02;;;11.73;;
33810;SDS011;20119;48.334;16.206;2023-03-31T05:39:29;17.23;;;11.27;;
33810;SDS011;20119;48.334;16.206;2023-03-31T05:41:57;16.42;;;11.07;;
33810;SDS011;20119;48.334;16.206;2023-03-31T05:44:25;15.60;;;10.95;;
33810;SDS011;20119;48.334;16.206;2023-03-31T05:46:55;11.73;;;9.17;;
33810;SDS011;20119;48.334;16.206;2023-03-31T05:49:23;22.35;;;16.38;;
33810;SDS011;20119;48.334;16.206;2023-03-31T05:51:51;18.00;;;13.68;;
33810;SDS011;20119;48.334;16.206;2023-03-31T05:54:20;16.17;;;12.30;;
33810;SDS011;20119;48.334;16.206;2023-03-31T05:56:47;19.33;;;13.52;;
33810;SDS011;20119;48.334;16.206;2023-03-31T05:59:15;12.10;;;9.38;;
33810;SDS011;20119;48.334;16.206;2023-03-31T06:01:42;13.27;;;10.13;;
33810;SDS011;20119;48.334;16.206;2023-03-31T06:04:11;14.13;;;9.88;;
33810;SDS011;20119;48.334;16.206;2023-03-31T06:06:40;18.25;;;13.73;;
33810;SDS011;20119;48.334;16.206;2023-03-31T06:09:09;11.45;;;9.05;;
33810;SDS011;20119;48.334;16.206;2023-03-31T06:14:05;11.77;;;8.60;;
33810;SDS011;20119;48.334;16.206;2023-03-31T06:16:33;8.88;;;6.80;;
33810;SDS011;20119;48.334;16.206;2023-03-31T06:19:01;7.40;;;5.90;;
33810;SDS011;20119;48.334;16.206;2023-03-31T06:21:29;6.18;;;4.90;;
33810;SDS011;20119;48.334;16.206;2023-03-31T06:23:59;8.27;;;5.15;;
33810;SDS011;20119;48.334;16.206;2023-03-31T06:26:27;8.30;;;5.38;;
33810;SDS011;20119;48.334;16.206;2023-03-31T06:28:56;7.07;;;5.22;;
33810;SDS011;20119;48.334;16.206;2023-03-31T06:31:24;7.05;;;5.20;;
33810;SDS011;20119;48.334;16.206;2023-03-31T06:33:53;6.88;;;4.88;;
33810;SDS011;20119;48.334;16.206;2023-03-31T06:36:22;7.00;;;4.55;;
33810;SDS011;20119;48.334;16.206;2023-03-31T06:38:50;6.35;;;4.95;;
33810;SDS011;20119;48.334;16.206;2023-03-31T06:41:19;7.10;;;5.15;;
33810;SDS011;20119;48.334;16.206;2023-03-31T06:43:48;7.35;;;4.88;;
33810;SDS011;20119;48.334;16.206;2023-03-31T06:46:15;8.60;;;5.00;;
33810;SDS011;20119;48.334;16.206;2023-03-31T06:48:43;8.45;;;5.00;;
33810;SDS011;20119;48.334;16.206;2023-03-31T06:51:11;7.07;;;4.50;;
33810;SDS011;20119;48.334;16.206;2023-03-31T06:53:39;7.50;;;4.38;;
33810;SDS011;20119;48.334;16.206;2023-03-31T06:56:06;6.32;;;4.00;;
33810;SDS011;20119;48.334;16.206;2023-03-31T06:58:35;6.80;;;4.68;;
33810;SDS011;20119;48.334;16.206;2023-03-31T07:01:03;8.57;;;5.17;;
33810;SDS011;20119;48.334;16.206;2023-03-31T07:03:31;7.68;;;5.68;;
33810;SDS011;20119;48.334;16.206;2023-03-31T07:05:58;8.75;;;6.15;;
33810;SDS011;20119;48.334;16.206;2023-03-31T07:08:27;7.95;;;4.75;;
33810;SDS011;20119;48.334;16.206;2023-03-31T07:10:55;8.48;;;5.18;;
33810;SDS011;20119;48.334;16.206;2023-03-31T07:13:25;7.68;;;4.50;;
33810;SDS011;20119;48.334;16.206;2023-03-31T07:15:56;6.18;;;4.18;;
33810;SDS011;20119;48.334;16.206;2023-03-31T07:18:25;7.05;;;4.80;;
33810;SDS011;20119;48.334;16.206;2023-03-31T07:20:56;7.20;;;4.30;;
33810;SDS011;20119;48.334;16.206;2023-03-31T07:23:24;5.95;;;4.03;;
33810;SDS011;20119;48.334;16.206;2023-03-31T07:28:39;7.10;;;3.80;;
33810;SDS011;20119;48.334;16.206;2023-03-31T07:31:12;6.25;;;3.60;;
33810;SDS011;20119;48.334;16.206;2023-03-31T07:33:40;5.25;;;3.70;;
33810;SDS011;20119;48.334;16.206;2023-03-31T07:36:07;6.78;;;4.25;;
33810;SDS011;20119;48.334;16.206;2023-03-31T07:38:36;7.82;;;4.32;;
33810;SDS011;20119;48.334;16.206;2023-03-31T07:41:03;9.55;;;4.82;;
33810;SDS011;20119;48.334;16.206;2023-03-31T07:43:32;6.88;;;4.43;;
33810;SDS011;20119;48.334;16.206;2023-03-31T07:45:59;8.38;;;4.50;;
33810;SDS011;20119;48.334;16.206;2023-03-31T07:48:30;6.90;;;3.93;;
33810;SDS011;20119;48.334;16.206;2023-03-31T07:50:58;8.00;;;4.30;;
33810;SDS011;20119;48.334;16.206;2023-03-31T07:53:26;6.97;;;4.05;;
33810;SDS011;20119;48.334;16.206;2023-03-31T07:55:56;7.30;;;3.63;;
33810;SDS011;20119;48.334;16.206;2023-03-31T07:58:25;5.97;;;3.80;;
33810;SDS011;20119;48.334;16.206;2023-03-31T08:00:53;6.35;;;3.72;;
33810;SDS011;20119;48.334;16.206;2023-03-31T08:03:21;5.97;;;3.85;;
33810;SDS011;20119;48.334;16.206;2023-03-31T08:05:51;5.68;;;3.38;;
33810;SDS011;20119;48.334;16.206;2023-03-31T08:08:18;8.27;;;4.30;;
33810;SDS011;20119;48.334;16.206;2023-03-31T08:10:46;6.15;;;3.58;;
33810;SDS011;20119;48.334;16.206;2023-03-31T08:13:15;10.73;;;4.28;;
33810;SDS011;20119;48.334;16.206;2023-03-31T08:15:42;7.60;;;3.90;;
33810;SDS011;20119;48.334;16.206;2023-03-31T08:18:10;6.47;;;4.30;;
33810;SDS011;20119;48.334;16.206;2023-03-31T08:20:38;7.90;;;3.70;;
33810;SDS011;20119;48.334;16.206;2023-03-31T08:23:07;6.53;;;4.00;;
33810;SDS011;20119;48.334;16.206;2023-03-31T08:28:04;7.80;;;4.32;;
33810;SDS011;20119;48.334;16.206;2023-03-31T08:30:38;9.23;;;5.35;;
33810;SDS011;20119;48.334;16.206;2023-03-31T08:33:08;6.00;;;4.20;;
33810;SDS011;20119;48.334;16.206;2023-03-31T08:35:36;7.28;;;4.20;;
33810;SDS011;20119;48.334;16.206;2023-03-31T08:38:04;8.05;;;4.40;;
33810;SDS011;20119;48.334;16.206;2023-03-31T08:40:34;9.77;;;5.32;;
33810;SDS011;20119;48.334;16.206;2023-03-31T08:43:05;8.40;;;4.53;;
33810;SDS011;20119;48.334;16.206;2023-03-31T08:45:38;10.88;;;6.45;;
33810;SDS011;20119;48.334;16.206;2023-03-31T08:48:12;33.35;;;11.98;;
33810;SDS011;20119;48.334;16.206;2023-03-31T08:50:51;12.45;;;6.07;;
33810;SDS011;20119;48.334;16.206;2023-03-31T08:53:25;30.65;;;12.75;;
33810;SDS011;20119;48.334;16.206;2023-03-31T08:55:54;20.98;;;9.18;;
33810;SDS011;20119;48.334;16.206;2023-03-31T08:58:31;31.02;;;12.10;;
33810;SDS011;20119;48.334;16.206;2023-03-31T09:01:07;12.65;;;5.50;;
33810;SDS011;20119;48.334;16.206;2023-03-31T09:03:42;9.15;;;5.35;;
33810;SDS011;20119;48.334;16.206;2023-03-31T09:06:18;8.15;;;5.45;;
33810;SDS011;20119;48.334;16.206;2023-03-31T09:08:54;12.18;;;7.00;;
33810;SDS011;20119;48.334;16.206;2023-03-31T09:11:31;15.73;;;7.50;;
33810;SDS011;20119;48.334;16.206;2023-03-31T09:14:09;8.65;;;5.15;;
33810;SDS011;20119;48.334;16.206;2023-03-31T09:19:15;8.15;;;4.20;;
33810;SDS011;20119;48.334;16.206;2023-03-31T09:21:47;9.13;;;4.07;;
33810;SDS011;20119;48.334;16.206;2023-03-31T09:24:18;8.70;;;4.32;;
33810;SDS011;20119;48.334;16.206;2023-03-31T09:26:50;7.57;;;3.78;;
33810;SDS011;20119;48.334;16.206;2023-03-31T09:29:21;6.50;;;3.42;;
33810;SDS011;20119;48.334;16.206;2023-03-31T09:31:53;6.97;;;3.17;;
33810;SDS011;20119;48.334;16.206;2023-03-31T09:34:27;6.80;;;3.03;;
33810;SDS011;20119;48.334;16.206;2023-03-31T09:36:59;6.35;;;3.47;;
33810;SDS011;20119;48.334;16.206;2023-03-31T09:39:29;7.57;;;4.35;;
33810;SDS011;20119;48.334;16.206;2023-03-31T09:42:00;10.63;;;5.57;;
33810;SDS011;20119;48.334;16.206;2023-03-31T09:44:33;14.95;;;9.90;;
33810;SDS011;20119;48.334;16.206;2023-03-31T09:47:04;9.95;;;4.63;;
33810;SDS011;20119;48.334;16.206;2023-03-31T09:49:33;7.65;;;3.90;;
33810;SDS011;20119;48.334;16.206;2023-03-31T09:52:03;4.10;;;1.70;;
33810;SDS011;20119;48.334;16.206;2023-03-31T09:54:36;7.05;;;2.05;;
33810;SDS011;20119;48.334;16.206;2023-03-31T09:57:12;5.10;;;1.75;;
33810;SDS011;20119;48.334;16.206;2023-03-31T09:59:42;5.78;;;2.13;;
33810;SDS011;20119;48.334;16.206;2023-03-31T10:02:21;4.90;;;1.83;;
33810;SDS011;20119;48.334;16.206;2023-03-31T10:04:58;9.77;;;2.35;;
33810;SDS011;20119;48.334;16.206;2023-03-31T10:07:26;4.57;;;1.80;;
33810;SDS011;20119;48.334;16.206;2023-03-31T10:09:55;3.35;;;1.60;;
33810;SDS011;20119;48.334;16.206;2023-03-31T10:12:24;7.55;;;2.78;;
33810;SDS011;20119;48.334;16.206;2023-03-31T10:17:27;6.57;;;2.67;;
33810;SDS011;20119;48.334;16.206;2023-03-31T10:19:56;6.50;;;2.80;;
33810;SDS011;20119;48.334;16.206;2023-03-31T10:22:28;9.05;;;2.67;;
33810;SDS011;20119;48.334;16.206;2023-03-31T10:25:07;7.13;;;2.83;;
33810;SDS011;20119;48.334;16.206;2023-03-31T10:27:36;5.70;;;2.60;;
33810;SDS011;20119;48.334;16.206;2023-03-31T10:30:08;5.82;;;2.35;;
33810;SDS011;20119;48.334;16.206;2023-03-31T10:32:38;6.85;;;2.72;;
33810;SDS011;20119;48.334;16.206;2023-03-31T10:35:13;5.85;;;2.65;;
33810;SDS011;20119;48.334;16.206;2023-03-31T10:37:48;8.55;;;3.47;;
33810;SDS011;20119;48.334;16.206;2023-03-31T10:40:25;4.25;;;2.35;;
33810;SDS011;20119;48.334;16.206;2023-03-31T10:42:57;4.22;;;2.33;;
33810;SDS011;20119;48.334;16.206;2023-03-31T10:45:29;4.05;;;2.22;;
33810;SDS011;20119;48.334;16.206;2023-03-31T10:48:02;8.13;;;2.47;;
33810;SDS011;20119;48.334;16.206;2023-03-31T10:50:30;6.10;;;2.10;;
33810;SDS011;20119;48.334;16.206;2023-03-31T10:53:01;4.93;;;1.88;;
33810;SDS011;20119;48.334;16.206;2023-03-31T10:55:34;9.02;;;2.30;;
33810;SDS011;20119;48.334;16.206;2023-03-31T10:58:13;4.90;;;2.83;;
33810;SDS011;20119;48.334;16.206;2023-03-31T11:00:54;5.03;;;2.33;;
33810;SDS011;20119;48.334;16.206;2023-03-31T11:03:34;5.75;;;2.35;;
33810;SDS011;20119;48.334;16.206;2023-03-31T11:06:15;5.05;;;2.13;;
33810;SDS011;20119;48.334;16.206;2023-03-31T11:08:55;6.05;;;2.58;;
33810;SDS011;20119;48.334;16.206;2023-03-31T11:11:42;4.95;;;2.40;;
33810;SDS011;20119;48.334;16.206;2023-03-31T11:14:26;5.63;;;2.40;;
33810;SDS011;20119;48.334;16.206;2023-03-31T11:17:03;8.25;;;2.78;;
33810;SDS011;20119;48.334;16.206;2023-03-31T11:19:44;6.35;;;2.45;;
33810;SDS011;20119;48.334;16.206;2023-03-31T11:22:21;5.75;;;2.85;;
33810;SDS011;20119;48.334;16.206;2023-03-31T11:25:03;5.22;;;2.83;;
33810;SDS011;20119;48.334;16.206;2023-03-31T11:30:38;6.47;;;2.72;;
33810;SDS011;20119;48.334;16.206;2023-03-31T11:33:25;5.10;;;2.85;;
33810;SDS011;20119;48.334;16.206;2023-03-31T11:36:15;6.57;;;3.60;;
33810;SDS011;20119;48.334;16.206;2023-03-31T11:39:03;7.82;;;3.33;;
33810;SDS011;20119;48.334;16.206;2023-03-31T11:41:45;9.25;;;3.53;;
33810;SDS011;20119;48.334;16.206;2023-03-31T11:44:18;7.45;;;3.60;;
33810;SDS011;20119;48.334;16.206;2023-03-31T11:46:48;6.28;;;3.67;;
33810;SDS011;20119;48.334;16.206;2023-03-31T11:49:19;7.63;;;3.63;;
33810;SDS011;20119;48.334;16.206;2023-03-31T11:51:51;5.10;;;3.38;;
33810;SDS011;20119;48.334;16.206;2023-03-31T11:54:23;4.80;;;3.30;;
33810;SDS011;20119;48.334;16.206;2023-03-31T11:56:54;5.78;;;3.10;;
33810;SDS011;20119;48.334;16.206;2023-03-31T11:59:25;6.50;;;3.47;;
33810;SDS011;20119;48.334;16.206;2023-03-31T12:01:57;6.75;;;3.47;;
33810;SDS011;20119;48.334;16.206;2023-03-31T12:04:36;3.38;;;2.90;;
33810;SDS011;20119;48.334;16.206;2023-03-31T12:07:10;6.15;;;3.40;;
33810;SDS011;20119;48.334;16.206;2023-03-31T12:09:49;8.45;;;3.30;;
33810;SDS011;20119;48.334;16.206;2023-03-31T12:12:21;6.05;;;3.25;;
33810;SDS011;20119;48.334;16.206;2023-03-31T12:14:57;7.13;;;3.65;;
33810;SDS011;20119;48.334;16.206;2023-03-31T12:17:30;7.18;;;4.05;;
33810;SDS011;20119;48.334;16.206;2023-03-31T12:20:01;8.47;;;3.87;;
33810;SDS011;20119;48.334;16.206;2023-03-31T12:22:41;7.57;;;4.70;;
33810;SDS011;20119;48.334;16.206;2023-03-31T12:25:10;7.10;;;4.78;;
33810;SDS011;20119;48.334;16.206;2023-03-31T12:27:40;8.25;;;5.03;;
33810;SDS011;20119;48.334;16.206;2023-03-31T12:30:17;6.68;;;5.00;;
33810;SDS011;20119;48.334;16.206;2023-03-31T12:32:51;8.27;;;5.80;;
33810;SDS011;20119;48.334;16.206;2023-03-31T12:40:51;10.43;;;5.78;;
33810;SDS011;20119;48.334;16.206;2023-03-31T12:43:40;8.75;;;5.93;;
33810;SDS011;20119;48.334;16.206;2023-03-31T12:49:39;10.82;;;5.60;;
33810;SDS011;20119;48.334;16.206;2023-03-31T12:52:16;10.00;;;5.90;;
33810;SDS011;20119;48.334;16.206;2023-03-31T12:57:53;8.65;;;5.70;;
33810;SDS011;20119;48.334;16.206;2023-03-31T13:01:02;9.77;;;5.32;;
33810;SDS011;20119;48.334;16.206;2023-03-31T13:03:41;8.52;;;5.30;;
33810;SDS011;20119;48.334;16.206;2023-03-31T13:12:07;8.43;;;4.95;;
33810;SDS011;20119;48.334;16.206;2023-03-31T13:14:39;8.73;;;4.82;;
33810;SDS011;20119;48.334;16.206;2023-03-31T13:17:18;7.78;;;3.75;;
33810;SDS011;20119;48.334;16.206;2023-03-31T13:19:49;6.70;;;4.28;;
33810;SDS011;20119;48.334;16.206;2023-03-31T13:22:27;5.15;;;3.92;;
33810;SDS011;20119;48.334;16.206;2023-03-31T13:28:15;6.40;;;4.65;;
33810;SDS011;20119;48.334;16.206;2023-03-31T13:30:58;7.22;;;4.50;;
33810;SDS011;20119;48.334;16.206;2023-03-31T13:33:30;11.18;;;4.50;;
33810;SDS011;20119;48.334;16.206;2023-03-31T13:36:18;8.43;;;4.40;;
33810;SDS011;20119;48.334;16.206;2023-03-31T13:39:01;5.65;;;3.83;;
33810;SDS011;20119;48.334;16.206;2023-03-31T13:41:41;6.90;;;3.95;;
33810;SDS011;20119;48.334;16.206;2023-03-31T13:47:36;5.97;;;3.38;;
33810;SDS011;20119;48.334;16.206;2023-03-31T13:50:38;8.48;;;3.30;;
33810;SDS011;20119;48.334;16.206;2023-03-31T13:53:41;6.60;;;3.28;;
33810;SDS011;20119;48.334;16.206;2023-03-31T13:56:31;7.22;;;3.40;;
33810;SDS011;20119;48.334;16.206;2023-03-31T13:59:24;5.35;;;2.85;;
33810;SDS011;20119;48.334;16.206;2023-03-31T14:02:37;4.70;;;2.70;;
33810;SDS011;20119;48.334;16.206;2023-03-31T14:05:24;4.43;;;2.40;;
33810;SDS011;20119;48.334;16.206;2023-03-31T14:07:58;4.32;;;2.47;;
33810;SDS011;20119;48.334;16.206;2023-03-31T14:10:30;4.30;;;2.60;;
33810;SDS011;20119;48.334;16.206;2023-03-31T14:13:09;4.00;;;2.47;;
33810;SDS011;20119;48.334;16.206;2023-03-31T14:15:38;5.82;;;2.53;;
33810;SDS011;20119;48.334;16.206;2023-03-31T14:18:09;5.05;;;2.80;;
33810;SDS011;20119;48.334;16.206;2023-03-31T14:23:34;4.95;;;2.63;;
33810;SDS011;20119;48.334;16.206;2023-03-31T14:26:12;6.00;;;2.95;;
33810;SDS011;20119;48.334;16.206;2023-03-31T14:28:48;8.25;;;2.72;;
33810;SDS011;20119;48.334;16.206;2023-03-31T14:31:25;5.10;;;2.80;;
33810;SDS011;20119;48.334;16.206;2023-03-31T14:34:05;7.07;;;2.97;;
33810;SDS011;20119;48.334;16.206;2023-03-31T14:36:44;4.75;;;3.28;;
33810;SDS011;20119;48.334;16.206;2023-03-31T14:39:22;6.15;;;2.97;;
33810;SDS011;20119;48.334;16.206;2023-03-31T14:41:55;5.75;;;3.35;;
33810;SDS011;20119;48.334;16.206;2023-03-31T14:44:27;5.25;;;3.40;;
33810;SDS011;20119;48.334;16.206;2023-03-31T14:46:55;5.60;;;3.20;;
33810;SDS011;20119;48.334;16.206;2023-03-31T14:49:24;4.82;;;2.88;;
33810;SDS011;20119;48.334;16.206;2023-03-31T14:51:54;4.83;;;3.17;;
33810;SDS011;20119;48.334;16.206;2023-03-31T14:54:25;6.97;;;3.20;;
33810;SDS011;20119;48.334;16.206;2023-03-31T14:56:54;8.40;;;3.17;;
33810;SDS011;20119;48.334;16.206;2023-03-31T14:59:27;4.68;;;3.20;;
33810;SDS011;20119;48.334;16.206;2023-03-31T15:01:58;5.88;;;2.88;;
33810;SDS011;20119;48.334;16.206;2023-03-31T15:04:28;7.18;;;3.20;;
33810;SDS011;20119;48.334;16.206;2023-03-31T15:09:27;5.25;;;3.08;;
33810;SDS011;20119;48.334;16.206;2023-03-31T15:14:27;6.23;;;2.90;;
33810;SDS011;20119;48.334;16.206;2023-03-31T15:16:56;12.70;;;2.35;;
33810;SDS011;20119;48.334;16.206;2023-03-31T15:19:26;9.27;;;1.80;;
33810;SDS011;20119;48.334;16.206;2023-03-31T15:21:55;5.25;;;1.60;;
33810;SDS011;20119;48.334;16.206;2023-03-31T15:24:25;4.13;;;1.60;;
33810;SDS011;20119;48.334;16.206;2023-03-31T15:26:55;3.97;;;1.95;;
33810;SDS011;20119;48.334;16.206;2023-03-31T15:29:30;4.75;;;2.00;;
33810;SDS011;20119;48.334;16.206;2023-03-31T15:32:04;3.70;;;2.10;;
33810;SDS011;20119;48.334;16.206;2023-03-31T15:34:36;2.20;;;1.73;;
33810;SDS011;20119;48.334;16.206;2023-03-31T15:37:05;7.28;;;1.90;;
33810;SDS011;20119;48.334;16.206;2023-03-31T15:39:32;4.13;;;1.90;;
33810;SDS011;20119;48.334;16.206;2023-03-31T15:42:04;3.45;;;1.90;;
33810;SDS011;20119;48.334;16.206;2023-03-31T15:44:35;4.22;;;2.17;;
33810;SDS011;20119;48.334;16.206;2023-03-31T15:47:05;4.25;;;2.20;;
33810;SDS011;20119;48.334;16.206;2023-03-31T15:49:50;4.10;;;2.33;;
33810;SDS011;20119;48.334;16.206;2023-03-31T15:52:20;4.68;;;1.83;;
33810;SDS011;20119;48.334;16.206;2023-03-31T15:54:51;3.83;;;1.88;;
33810;SDS011;20119;48.334;16.206;2023-03-31T15:57:20;4.63;;;2.00;;
33810;SDS011;20119;48.334;16.206;2023-03-31T15:59:58;4.60;;;2.05;;
33810;SDS011;20119;48.334;16.206;2023-03-31T16:02:26;2.42;;;1.90;;
33810;SDS011;20119;48.334;16.206;2023-03-31T16:05:05;2.67;;;1.65;;